Etusivu
METAR-TAF:

METAR-TAF

Lentoasemat :

Osaka, Japani

Leveyspiiri: 34-47N, Pituuspiiri: 135-27E, korkeus merenpinnasta: 12 m

Tämänhetkinen sää

Tämä raportti tehtiin 1 tunti ja 6 minuuttia sitten, kello 23.00 UTC
Tuuli 2 kn eri suunnista
Lämpötila 5°C
Kosteus 75%
Ilmanpaine 1030 hPa
Näkyvyys 10 km tai enemmän
Muutamia pilviä 2500 ft:n korkeudessa
Hajonneita pilviä 6000 ft:n korkeudessa

METAR: RJOO 142300Z VRB02KT 9999 FEW025 BKN060 05/01 Q1030 RMK 1CU025 6SC060 A3042

Aika: 09:06 (00:06 UTC)

Sääennuste

Tämä raportti tehtiin 1 tunti ja 0 minuuttia sitten, kello 23.06 UTC
Ennuste voimassa 15. päivästä klo 00 UTC - 16. päivään klo 06 UTC
Tuuli 9 kn pohjoisen/luoteesta
Näkyvyys 10 km tai enemmän
Muutamia pilviä 2500 ft:n korkeudessa
Hajanaisia pilviä 3500 ft:n korkeudessa
Tulossa
15. päivästä klo 15 UTC - 15. päivään klo 18 UTC
Tuuli 5 kn idästä

TAF: RJOO 142306Z 1500/1606 34009KT 9999 FEW025 SCT035 BECMG 1515/1518 10005KT

Säähavainnot ja -ennusteet yli 4000 lentoasemalta (METAR- ja TAF-raportit).

Käytössä olevat sääasemat on merkitty karttaan keltaisilla ja punaisilla pisteillä.

Aseta hiiri pisteen päälle nähdäksesi sääaseman nimen.

Klikkaa sitten nähdäksesi säähavainnot ja -ennusteet.

Kartan vaihtaminen: klikkaa mustalla rastilla varustettuja vihreitä pisteitä, niin voit zoomata sisään; viivalla varustettua vihreää pistettä, niin voit zoomata ulos tai vihreitä nuolia, niin pääset viereisille kartoille.


METAR-TAF: